createdAt,value
2023-02-02T00:04:18.684Z,99803.44
2023-02-02T00:09:22.349Z,99808.69
2023-02-02T00:14:26.707Z,99808.69
2023-02-02T00:19:31.455Z,99816.66
2023-02-02T00:24:34.214Z,99813.97
2023-02-02T00:29:39.752Z,99823.88
2023-02-02T00:34:42.472Z,99823.75
2023-02-02T00:39:45.697Z,99821.69
2023-02-02T00:45:07.138Z,99823.53
2023-02-02T00:50:13.051Z,99825.47
2023-02-02T00:55:17.397Z,99821.91
2023-02-02T01:00:23.743Z,99821.91
2023-02-02T01:05:26.673Z,99811.28
2023-02-02T01:10:29.791Z,99809.28
2023-02-02T01:15:33.907Z,99814.09
2023-02-02T01:20:36.833Z,99805.88
2023-02-02T01:25:39.726Z,99806.13
2023-02-02T01:30:43.874Z,99800.50
2023-02-02T01:35:47.721Z,99800.47
2023-02-02T01:40:54.487Z,99807.34
2023-02-02T01:45:59.816Z,99806.72
2023-02-02T01:51:05.307Z,99796.81
2023-02-02T01:56:11.445Z,99797.66
2023-02-02T02:01:16.072Z,99802.19
2023-02-02T02:06:20.887Z,99806.97
2023-02-02T02:11:24.853Z,99819.09
2023-02-02T02:16:40.007Z,99824.31
2023-02-02T02:22:13.484Z,99823.09
2023-02-02T02:27:43.561Z,99820.34
2023-02-02T02:32:51.431Z,99818.00
2023-02-02T02:38:00.554Z,99822.75
2023-02-02T02:43:08.919Z,99834.63
2023-02-02T02:48:13.646Z,99826.22
2023-02-02T02:53:21.175Z,99828.34
2023-02-02T02:58:35.165Z,99829.59
2023-02-02T03:03:53.633Z,99842.00
2023-02-02T03:09:01.480Z,99836.50
2023-02-02T03:14:09.493Z,99845.53
2023-02-02T03:19:14.202Z,99852.63
2023-02-02T03:24:16.975Z,99841.03
2023-02-02T03:29:20.049Z,99843.44
2023-02-02T03:34:24.211Z,99854.34
2023-02-02T03:39:26.940Z,99849.94
2023-02-02T03:44:29.818Z,99859.72
2023-02-02T03:49:33.955Z,99863.19
2023-02-02T03:54:36.683Z,99870.22
2023-02-02T03:59:39.433Z,99877.44
2023-02-02T04:04:43.585Z,99879.13
2023-02-02T04:09:46.305Z,99881.94
2023-02-02T04:14:49.074Z,99888.19
2023-02-02T04:19:58.030Z,99899.69
2023-02-02T04:25:00.818Z,99908.16
2023-02-02T04:30:03.634Z,99917.19
2023-02-02T04:35:09.003Z,99926.59
2023-02-02T04:40:13.265Z,99931.66
2023-02-02T04:45:17.067Z,99932.25
2023-02-02T04:50:21.415Z,99937.22
2023-02-02T04:55:25.364Z,99958.47
2023-02-02T05:00:28.305Z,99967.63
2023-02-02T05:05:32.426Z,99974.34
2023-02-02T05:10:35.237Z,99984.78
2023-02-02T05:15:37.988Z,99985.31
2023-02-02T05:20:42.069Z,99997.78
2023-02-02T05:25:44.798Z,99992.03
2023-02-02T05:30:47.560Z,99999.84
2023-02-02T05:35:51.649Z,100004.78
2023-02-02T05:40:54.737Z,100015.06
2023-02-02T05:45:57.725Z,100024.41
2023-02-02T05:51:07.209Z,100022.53
2023-02-02T05:56:10.027Z,100035.34
2023-02-02T06:01:12.880Z,100036.63
2023-02-02T06:06:17.058Z,100050.31
2023-02-02T06:11:20.176Z,100056.09
2023-02-02T06:16:22.948Z,100063.56
2023-02-02T06:21:27.117Z,100064.94
2023-02-02T06:26:30.363Z,100075.78
2023-02-02T06:31:33.973Z,100071.53
2023-02-02T06:36:38.251Z,100072.50
2023-02-02T06:41:41.425Z,100074.69
2023-02-02T06:46:44.317Z,100070.69
2023-02-02T06:51:49.266Z,100077.88
2023-02-02T06:56:52.053Z,100083.44
2023-02-02T07:01:54.906Z,100091.84
2023-02-02T07:06:59.093Z,100098.00
2023-02-02T07:12:01.901Z,100108.25
2023-02-02T07:17:04.934Z,100109.38
2023-02-02T07:22:09.132Z,100113.03
2023-02-02T07:27:12.021Z,100112.22
2023-02-02T07:32:14.753Z,100123.16
2023-02-02T07:37:20.153Z,100129.38
2023-02-02T07:42:23.020Z,100134.00
2023-02-02T07:47:26.126Z,100135.00
2023-02-02T07:52:31.528Z,100146.88
2023-02-02T07:57:34.272Z,100136.25
2023-02-02T08:02:37.174Z,100139.63
2023-02-02T08:07:41.438Z,100140.91
2023-02-02T08:12:44.374Z,100150.41
2023-02-02T08:17:49.873Z,100157.78
2023-02-02T08:22:53.993Z,100175.97
2023-02-02T08:27:58.670Z,100196.81
2023-02-02T08:33:01.457Z,100190.41
2023-02-02T08:38:07.427Z,100192.47
2023-02-02T08:43:10.644Z,100188.63
2023-02-02T08:48:14.424Z,100193.81
2023-02-02T08:53:18.642Z,100193.53
2023-02-02T08:58:21.438Z,100196.94
2023-02-02T09:03:24.203Z,100210.25
2023-02-02T09:08:28.417Z,100203.34
2023-02-02T09:13:31.416Z,100207.47
2023-02-02T09:18:34.216Z,100212.22
2023-02-02T09:23:40.933Z,100216.16
2023-02-02T09:28:45.920Z,100231.59
2023-02-02T09:33:48.951Z,100227.75
2023-02-02T09:38:53.424Z,100232.59
2023-02-02T09:44:07.049Z,100238.53
2023-02-02T09:49:15.333Z,100248.91
2023-02-02T09:54:24.681Z,100247.19
2023-02-02T09:59:32.348Z,100241.69
2023-02-02T10:04:39.243Z,100242.47
2023-02-02T10:09:48.458Z,100253.03
2023-02-02T10:14:58.737Z,100260.81
2023-02-02T10:20:07.774Z,100265.09
2023-02-02T10:25:16.764Z,100259.53
2023-02-02T10:30:25.517Z,100273.56
2023-02-02T10:35:38.437Z,100261.72
2023-02-02T10:40:55.631Z,100254.31
2023-02-02T10:46:00.761Z,100265.06
2023-02-02T10:51:12.192Z,100266.91
2023-02-02T10:56:21.932Z,100274.13
2023-02-02T11:01:24.771Z,100277.75
2023-02-02T11:06:44.824Z,100282.19
2023-02-02T11:11:52.814Z,100275.91
2023-02-02T11:17:03.121Z,100287.56
2023-02-02T11:22:06.046Z,100293.94
2023-02-02T11:27:15.302Z,100310.16
2023-02-02T11:32:28.929Z,100308.56
2023-02-02T11:37:33.471Z,100326.41
2023-02-02T11:42:37.885Z,100322.00
2023-02-02T11:47:41.694Z,100317.50
2023-02-02T11:52:47.205Z,100321.09
2023-02-02T11:58:18.373Z,100321.53
2023-02-02T12:03:36.765Z,100325.50
2023-02-02T12:08:39.560Z,100326.69
2023-02-02T12:13:55.470Z,100334.78
2023-02-02T12:19:21.345Z,100344.78
2023-02-02T12:24:32.671Z,100357.78
2023-02-02T12:30:10.093Z,100365.00
2023-02-02T12:35:35.551Z,100373.13
2023-02-02T12:41:02.144Z,100358.81
2023-02-02T12:46:34.408Z,100358.56
2023-02-02T12:51:54.647Z,100362.09
2023-02-02T12:57:07.913Z,100378.03
2023-02-02T13:02:24.321Z,100371.03
2023-02-02T13:07:41.729Z,100388.63
2023-02-02T13:12:50.038Z,100389.06
2023-02-02T13:17:56.587Z,100402.34
2023-02-02T13:23:04.325Z,100411.91
2023-02-02T13:28:13.493Z,100409.75
2023-02-02T13:33:24.266Z,100401.56
2023-02-02T13:38:30.249Z,100405.09
2023-02-02T13:43:44.723Z,100422.91
2023-02-02T13:49:00.371Z,100423.41
2023-02-02T13:54:27.389Z,100438.47
2023-02-02T13:59:49.046Z,100450.50
2023-02-02T14:05:01.542Z,100454.16
2023-02-02T14:10:05.391Z,100454.72
2023-02-02T14:15:13.275Z,100464.31
2023-02-02T14:20:43.126Z,100467.69
2023-02-02T14:26:06.371Z,100477.28
2023-02-02T14:31:31.587Z,100477.13
2023-02-02T14:36:40.352Z,100490.38
2023-02-02T14:42:17.298Z,100491.34
2023-02-02T14:47:48.627Z,100510.16
2023-02-02T14:53:02.726Z,100510.75
2023-02-02T14:58:08.632Z,100517.56
2023-02-02T15:03:35.132Z,100515.16
2023-02-02T15:08:39.375Z,100537.78
2023-02-02T15:13:46.530Z,100541.44
2023-02-02T15:19:00.336Z,100559.41
2023-02-02T15:24:07.794Z,100561.41
2023-02-02T15:29:22.056Z,100573.53
2023-02-02T15:34:28.528Z,100585.06
2023-02-02T15:39:37.800Z,100595.94
2023-02-02T15:44:40.830Z,100609.44
2023-02-02T15:49:45.339Z,100616.88
2023-02-02T15:54:55.115Z,100643.94
2023-02-02T15:59:58.635Z,100645.78
2023-02-02T16:05:01.727Z,100659.34
2023-02-02T16:10:08.892Z,100672.03
2023-02-02T16:15:19.962Z,100682.41
2023-02-02T16:20:23.207Z,100702.56
2023-02-02T16:25:27.989Z,100717.84
2023-02-02T16:30:35.618Z,100718.44
2023-02-02T16:35:40.818Z,100722.56
2023-02-02T16:40:45.361Z,100731.34
2023-02-02T16:45:51.579Z,100747.59
2023-02-02T16:51:08.468Z,100747.50
2023-02-02T16:56:24.723Z,100756.44
2023-02-02T17:01:37.625Z,100764.50
2023-02-02T17:06:51.709Z,100772.38
2023-02-02T17:12:03.104Z,100791.41
2023-02-02T17:17:07.566Z,100801.25
2023-02-02T17:22:12.089Z,100802.75
2023-02-02T17:27:19.280Z,100817.84
2023-02-02T17:32:23.554Z,100805.72
2023-02-02T17:37:26.589Z,100820.28
2023-02-02T17:42:31.067Z,100837.03
2023-02-02T17:47:36.782Z,100831.31
2023-02-02T17:52:40.076Z,100843.28
2023-02-02T17:57:46.250Z,100843.59
2023-02-02T18:02:54.651Z,100841.50
2023-02-02T18:07:58.684Z,100850.13
2023-02-02T18:13:03.098Z,100849.09
2023-02-02T18:18:06.037Z,100852.56
2023-02-02T18:23:08.889Z,100848.91
2023-02-02T18:28:15.856Z,100839.88
2023-02-02T18:33:19.939Z,100836.13
2023-02-02T18:38:22.981Z,100842.38
2023-02-02T18:43:27.346Z,100848.53
2023-02-02T18:48:30.470Z,100861.91
2023-02-02T18:53:33.724Z,100853.72
2023-02-02T18:58:38.206Z,100855.19
2023-02-02T19:03:41.137Z,100847.00
2023-02-02T19:08:43.991Z,100849.50
2023-02-02T19:13:48.389Z,100845.00
2023-02-02T19:18:51.471Z,100844.88
2023-02-02T19:23:54.398Z,100851.06
2023-02-02T19:29:03.790Z,100858.19
2023-02-02T19:34:12.358Z,100855.50
2023-02-02T19:39:18.720Z,100850.84
2023-02-02T19:44:24.545Z,100849.03
2023-02-02T19:49:32.489Z,100837.97
2023-02-02T19:54:37.532Z,100841.63
2023-02-02T19:59:43.301Z,100849.50
2023-02-02T20:04:46.047Z,100858.28
2023-02-02T20:09:50.202Z,100867.06
2023-02-02T20:14:54.616Z,100858.09
2023-02-02T20:19:57.501Z,100867.72
2023-02-02T20:25:06.871Z,100885.91
2023-02-02T20:30:21.833Z,100886.69
2023-02-02T20:35:34.039Z,100898.34
2023-02-02T20:40:36.847Z,100894.50
2023-02-02T20:45:41.080Z,100883.03
2023-02-02T20:50:46.599Z,100884.19
2023-02-02T20:55:49.405Z,100878.22
2023-02-02T21:00:54.760Z,100871.03
2023-02-02T21:05:57.729Z,100870.06
2023-02-02T21:11:00.639Z,100869.19
2023-02-02T21:16:05.204Z,100865.63
2023-02-02T21:21:08.004Z,100855.72
2023-02-02T21:26:10.758Z,100853.69
2023-02-02T21:31:16.620Z,100857.25
2023-02-02T21:36:30.212Z,100862.47
2023-02-02T21:41:34.227Z,100863.50
2023-02-02T21:46:39.762Z,100854.38
2023-02-02T21:51:43.694Z,100863.41
2023-02-02T21:56:46.572Z,100859.56
2023-02-02T22:01:52.644Z,100848.50
2023-02-02T22:07:00.324Z,100846.88
2023-02-02T22:12:10.820Z,100840.03
2023-02-02T22:17:22.867Z,100841.94
2023-02-02T22:27:44.474Z,100824.41
2023-02-02T22:32:48.640Z,100828.81
2023-02-02T22:37:52.120Z,100820.84
2023-02-02T22:42:56.697Z,100807.47
2023-02-02T22:48:00.962Z,100816.41
2023-02-02T22:53:04.976Z,100803.88
2023-02-02T22:58:07.745Z,100804.09
2023-02-02T23:03:11.910Z,100810.53
2023-02-02T23:08:14.770Z,100809.59
2023-02-02T23:13:17.934Z,100816.13
2023-02-02T23:18:22.056Z,100810.84
2023-02-02T23:23:24.935Z,100813.53
2023-02-02T23:28:27.738Z,100807.34
2023-02-02T23:33:32.245Z,100817.09
2023-02-02T23:38:35.166Z,100812.66
2023-02-02T23:43:38.015Z,100794.66
2023-02-02T23:48:42.205Z,100794.66
2023-02-02T23:53:45.133Z,100779.75
2023-02-02T23:58:48.063Z,100786.97
